createdAt,value
2022-10-11T00:02:25.248Z,12.20
2022-10-11T00:04:56.391Z,12.20
2022-10-11T00:07:29.407Z,12.20
2022-10-11T00:10:01.155Z,12.30
2022-10-11T00:12:31.067Z,12.20
2022-10-11T00:15:01.026Z,12.20
2022-10-11T00:17:31.212Z,12.20
2022-10-11T00:20:01.217Z,12.20
2022-10-11T00:22:31.750Z,12.20
2022-10-11T00:25:06.422Z,12.20
2022-10-11T00:27:37.325Z,12.20
2022-10-11T00:30:09.323Z,12.20
2022-10-11T00:32:43.021Z,12.10
2022-10-11T00:35:13.387Z,12.10
2022-10-11T00:37:46.082Z,12.00
2022-10-11T00:40:29.516Z,12.00
2022-10-11T00:43:00.841Z,12.00
2022-10-11T00:46:00.845Z,12.00
2022-10-11T00:48:35.189Z,12.00
2022-10-11T00:51:14.339Z,11.80
2022-10-11T00:53:45.079Z,11.70
2022-10-11T00:56:22.347Z,11.70
2022-10-11T00:58:56.999Z,11.60
2022-10-11T01:01:28.066Z,11.60
2022-10-11T01:04:04.716Z,11.70
2022-10-11T01:06:57.852Z,11.70
2022-10-11T01:09:29.536Z,11.80
2022-10-11T01:12:13.059Z,11.80
2022-10-11T01:15:06.426Z,11.70
2022-10-11T01:17:44.237Z,11.70
2022-10-11T01:20:40.145Z,11.70
2022-10-11T01:23:45.271Z,11.70
2022-10-11T01:26:51.988Z,11.70
2022-10-11T01:29:37.142Z,11.70
2022-10-11T01:32:16.494Z,11.70
2022-10-11T01:34:56.741Z,11.80
2022-10-11T01:37:32.637Z,11.80
2022-10-11T01:40:07.198Z,11.80
2022-10-11T01:42:42.970Z,11.80
2022-10-11T01:45:19.168Z,11.70
2022-10-11T01:48:03.900Z,11.70
2022-10-11T01:50:41.401Z,11.70
2022-10-11T01:53:47.237Z,11.70
2022-10-11T01:56:47.853Z,11.70
2022-10-11T01:59:31.324Z,11.70
2022-10-11T02:02:11.158Z,11.70
2022-10-11T02:04:50.168Z,11.60
2022-10-11T02:07:27.398Z,11.50
2022-10-11T02:10:06.714Z,11.40
2022-10-11T02:12:41.930Z,11.20
2022-10-11T02:15:14.625Z,11.20
2022-10-11T02:17:46.908Z,11.10
2022-10-11T02:20:22.838Z,11.10
2022-10-11T02:22:57.939Z,10.90
2022-10-11T02:25:31.575Z,10.80
2022-10-11T02:28:05.712Z,10.80
2022-10-11T02:30:42.065Z,10.90
2022-10-11T02:33:16.807Z,10.90
2022-10-11T02:35:56.946Z,11.00
2022-10-11T02:38:36.780Z,10.90
2022-10-11T02:41:12.540Z,10.80
2022-10-11T02:43:54.174Z,10.80
2022-10-11T02:46:27.165Z,10.80
2022-10-11T02:48:57.987Z,10.70
2022-10-11T02:51:30.945Z,10.80
2022-10-11T02:54:01.201Z,10.80
2022-10-11T02:56:31.284Z,10.80
2022-10-11T02:59:09.211Z,10.80
2022-10-11T03:01:39.312Z,10.70
2022-10-11T03:04:09.025Z,10.50
2022-10-11T03:06:40.261Z,10.20
2022-10-11T03:09:22.291Z,10.10
2022-10-11T03:11:58.243Z,10.10
2022-10-11T03:14:28.163Z,10.00
2022-10-11T03:17:12.101Z,10.00
2022-10-11T03:19:48.356Z,10.10
2022-10-11T03:22:23.611Z,10.00
2022-10-11T03:24:53.616Z,9.90
2022-10-11T03:27:23.881Z,9.80
2022-10-11T03:29:55.490Z,9.90
2022-10-11T03:32:25.409Z,9.80
2022-10-11T03:34:55.933Z,9.90
2022-10-11T03:37:27.138Z,9.80
2022-10-11T03:39:56.989Z,9.70
2022-10-11T03:42:27.240Z,9.70
2022-10-11T03:44:57.502Z,9.70
2022-10-11T03:47:32.703Z,9.70
2022-10-11T03:50:02.517Z,9.60
2022-10-11T03:52:34.242Z,9.40
2022-10-11T03:55:05.519Z,9.30
2022-10-11T03:57:35.670Z,9.30
2022-10-11T04:00:06.575Z,9.20
2022-10-11T04:02:40.711Z,9.20
2022-10-11T04:05:12.682Z,9.20
2022-10-11T04:07:44.195Z,9.10
2022-10-11T04:10:15.248Z,9.20
2022-10-11T04:12:45.442Z,9.20
2022-10-11T04:15:15.489Z,9.10
2022-10-11T04:17:45.610Z,9.00
2022-10-11T04:20:15.722Z,9.00
2022-10-11T04:22:47.000Z,9.00
2022-10-11T04:25:22.309Z,8.90
2022-10-11T04:27:52.071Z,9.00
2022-10-11T04:30:28.295Z,9.10
2022-10-11T04:33:03.766Z,9.10
2022-10-11T04:35:33.898Z,9.10
2022-10-11T04:38:06.037Z,9.00
2022-10-11T04:40:35.940Z,8.90
2022-10-11T04:43:05.830Z,8.90
2022-10-11T04:45:35.589Z,8.80
2022-10-11T04:48:05.478Z,8.80
2022-10-11T04:50:37.548Z,8.70
2022-10-11T04:53:08.863Z,8.80
2022-10-11T04:55:44.317Z,8.70
2022-10-11T04:58:14.380Z,8.70
2022-10-11T05:00:45.200Z,8.90
2022-10-11T05:03:15.254Z,8.80
2022-10-11T05:05:45.040Z,8.80
2022-10-11T05:08:16.574Z,8.90
2022-10-11T05:10:55.540Z,8.90
2022-10-11T05:13:28.731Z,8.60
2022-10-11T05:15:59.025Z,8.40
2022-10-11T05:18:32.334Z,8.30
2022-10-11T05:21:06.681Z,8.30
2022-10-11T05:23:38.989Z,8.10
2022-10-11T05:26:11.009Z,8.10
2022-10-11T05:28:41.242Z,8.10
2022-10-11T05:31:16.044Z,8.20
2022-10-11T05:33:46.255Z,8.20
2022-10-11T05:36:16.673Z,8.20
2022-10-11T05:38:48.720Z,8.20
2022-10-11T05:41:19.547Z,8.10
2022-10-11T05:43:51.753Z,7.90
2022-10-11T05:46:26.747Z,7.90
2022-10-11T05:49:01.670Z,7.90
2022-10-11T05:51:32.696Z,7.80
2022-10-11T05:54:03.795Z,7.60
2022-10-11T05:56:33.447Z,7.70
2022-10-11T05:59:03.321Z,7.60
2022-10-11T06:01:33.798Z,7.50
2022-10-11T06:04:04.867Z,7.50
2022-10-11T06:06:34.609Z,7.50
2022-10-11T06:09:07.608Z,7.50
2022-10-11T06:11:37.490Z,7.50
2022-10-11T06:14:10.268Z,7.40
2022-10-11T06:16:40.441Z,7.40
2022-10-11T06:19:10.610Z,7.50
2022-10-11T06:21:40.480Z,7.60
2022-10-11T06:24:12.308Z,7.50
2022-10-11T06:26:42.297Z,7.50
2022-10-11T06:29:10.778Z,7.70
2022-10-11T06:31:40.520Z,7.70
2022-10-11T06:34:10.524Z,7.70
2022-10-11T06:36:40.339Z,7.80
2022-10-11T06:39:25.340Z,7.90
2022-10-11T06:41:55.470Z,8.20
2022-10-11T06:44:26.667Z,8.40
2022-10-11T06:46:56.527Z,8.60
2022-10-11T06:49:26.350Z,8.80
2022-10-11T06:51:56.257Z,9.00
2022-10-11T06:54:27.681Z,9.10
2022-10-11T06:56:57.403Z,9.20
2022-10-11T06:59:27.406Z,9.40
2022-10-11T07:01:57.411Z,9.40
2022-10-11T07:04:30.413Z,9.60
2022-10-11T07:07:00.310Z,9.70
2022-10-11T07:09:32.156Z,9.80
2022-10-11T07:12:01.903Z,10.00
2022-10-11T07:14:31.710Z,10.20
2022-10-11T07:17:01.664Z,10.30
2022-10-11T07:19:31.913Z,10.50
2022-10-11T07:22:01.598Z,10.50
2022-10-11T07:24:32.893Z,10.60
2022-10-11T07:27:03.230Z,10.60
2022-10-11T07:29:33.178Z,10.70
2022-10-11T07:32:02.936Z,10.80
2022-10-11T07:34:33.056Z,10.80
2022-10-11T07:37:05.802Z,10.90
2022-10-11T07:39:36.883Z,11.00
2022-10-11T07:42:06.811Z,11.00
2022-10-11T07:44:36.751Z,11.10
2022-10-11T07:47:10.368Z,11.10
2022-10-11T07:49:40.808Z,11.20
2022-10-11T07:52:11.365Z,11.20
2022-10-11T07:54:42.441Z,11.20
2022-10-11T07:57:13.469Z,11.30
2022-10-11T08:02:29.596Z,11.60
2022-10-11T08:04:59.614Z,11.60
2022-10-11T08:07:31.057Z,11.60
2022-10-11T08:10:02.453Z,11.70
2022-10-11T08:12:32.498Z,11.70
2022-10-11T08:15:03.057Z,11.90
2022-10-11T08:17:33.157Z,12.00
2022-10-11T08:20:03.107Z,12.10
2022-10-11T08:22:32.780Z,12.20
2022-10-11T08:25:04.255Z,12.10
2022-10-11T08:27:34.089Z,12.30
2022-10-11T08:30:04.376Z,12.40
2022-10-11T08:32:34.207Z,12.50
2022-10-11T08:35:04.140Z,12.50
2022-10-11T08:37:34.134Z,12.50
2022-10-11T08:40:05.905Z,12.50
2022-10-11T08:42:42.466Z,12.30
2022-10-11T08:45:20.219Z,12.30
2022-10-11T08:47:58.320Z,12.40
2022-10-11T08:50:28.305Z,12.50
2022-10-11T08:53:03.399Z,12.80
2022-10-11T08:55:39.484Z,13.00
2022-10-11T08:58:35.427Z,13.20
2022-10-11T09:01:08.222Z,13.30
2022-10-11T09:03:42.420Z,13.20
2022-10-11T09:06:21.147Z,13.30
2022-10-11T09:09:05.881Z,13.20
2022-10-11T09:11:47.165Z,13.00
2022-10-11T09:14:39.401Z,13.10
2022-10-11T09:17:15.716Z,13.40
2022-10-11T09:20:12.396Z,13.20
2022-10-11T09:22:50.134Z,13.40
2022-10-11T09:25:25.688Z,13.80
2022-10-11T09:28:11.871Z,13.70
2022-10-11T09:30:48.420Z,13.90
2022-10-11T09:33:24.528Z,14.20
2022-10-11T09:35:58.115Z,13.90
2022-10-11T09:38:33.453Z,14.10
2022-10-11T09:41:10.547Z,14.40
2022-10-11T09:43:42.027Z,14.30
2022-10-11T09:46:21.938Z,14.30
2022-10-11T09:48:54.497Z,14.40
2022-10-11T09:51:26.972Z,14.40
2022-10-11T09:54:01.178Z,14.70
2022-10-11T09:56:32.314Z,14.70
2022-10-11T09:59:27.135Z,14.60
2022-10-11T10:02:20.489Z,14.80
2022-10-11T10:05:06.036Z,14.90
2022-10-11T10:07:38.253Z,15.40
2022-10-11T10:10:31.392Z,15.60
2022-10-11T10:13:04.968Z,15.50
2022-10-11T10:15:38.596Z,15.60
2022-10-11T10:18:19.379Z,15.80
2022-10-11T10:20:56.094Z,16.10
2022-10-11T10:23:28.843Z,16.30
2022-10-11T10:26:14.689Z,16.10
2022-10-11T10:29:01.488Z,16.20
2022-10-11T10:31:55.239Z,16.40
2022-10-11T10:34:30.977Z,16.50
2022-10-11T10:37:05.920Z,16.30
2022-10-11T10:39:42.197Z,16.00
2022-10-11T10:42:18.626Z,16.30
2022-10-11T10:44:53.362Z,16.20
2022-10-11T10:47:46.565Z,16.00
2022-10-11T10:50:21.556Z,16.20
2022-10-11T10:53:03.161Z,16.50
2022-10-11T10:55:43.289Z,16.40
2022-10-11T10:58:31.618Z,16.50
2022-10-11T11:01:09.948Z,16.60
2022-10-11T11:03:47.950Z,16.60
2022-10-11T11:06:24.855Z,16.60
2022-10-11T11:09:04.301Z,16.40
2022-10-11T11:11:56.511Z,16.40
2022-10-11T11:14:34.734Z,17.00
2022-10-11T11:17:13.712Z,17.00
2022-10-11T11:20:00.578Z,16.90
2022-10-11T11:22:37.975Z,16.70
2022-10-11T11:25:16.669Z,16.70
2022-10-11T11:27:57.458Z,16.60
2022-10-11T11:30:35.032Z,16.70
2022-10-11T11:33:16.736Z,17.10
2022-10-11T11:35:52.683Z,17.00
2022-10-11T11:38:29.925Z,16.30
2022-10-11T11:41:06.321Z,16.50
2022-10-11T11:43:40.956Z,16.30
2022-10-11T11:46:18.670Z,16.50
2022-10-11T11:48:50.046Z,16.50
2022-10-11T11:51:30.604Z,16.50
2022-10-11T11:54:09.320Z,16.30
2022-10-11T11:56:51.643Z,16.70
2022-10-11T11:59:26.100Z,16.90
2022-10-11T12:02:02.691Z,17.10
2022-10-11T12:04:38.055Z,17.30
2022-10-11T12:07:19.252Z,17.30
2022-10-11T12:09:51.401Z,16.90
2022-10-11T12:12:31.572Z,16.90
2022-10-11T12:15:17.857Z,17.10
2022-10-11T12:18:02.747Z,17.00
2022-10-11T12:20:37.046Z,17.00
2022-10-11T12:23:40.244Z,17.30
2022-10-11T12:26:34.879Z,17.30
2022-10-11T12:29:42.824Z,17.70
2022-10-11T12:32:52.164Z,17.80
2022-10-11T12:35:51.466Z,18.00
2022-10-11T12:38:25.928Z,17.80
2022-10-11T12:41:00.577Z,16.90
2022-10-11T12:43:37.368Z,16.70
2022-10-11T12:46:34.700Z,16.80
2022-10-11T12:49:17.726Z,17.10
2022-10-11T12:51:58.680Z,16.90
2022-10-11T12:54:55.633Z,16.50
2022-10-11T12:58:07.578Z,16.80
2022-10-11T13:00:46.746Z,17.10
2022-10-11T13:03:33.069Z,16.80
2022-10-11T13:06:12.108Z,16.50
2022-10-11T13:08:51.233Z,16.40
2022-10-11T13:11:26.779Z,16.30
2022-10-11T13:13:59.451Z,16.30
2022-10-11T13:16:42.891Z,16.40
2022-10-11T13:19:16.458Z,16.60
2022-10-11T13:21:51.147Z,16.80
2022-10-11T13:24:23.190Z,17.00
2022-10-11T13:26:56.448Z,17.20
2022-10-11T13:29:34.604Z,17.20
2022-10-11T13:32:12.255Z,17.20
2022-10-11T13:34:45.733Z,17.20
2022-10-11T13:37:20.798Z,17.10
2022-10-11T13:39:54.836Z,16.70
2022-10-11T13:42:29.787Z,16.50
2022-10-11T13:45:00.983Z,16.60
2022-10-11T13:47:32.806Z,16.80
2022-10-11T13:50:12.647Z,17.00
2022-10-11T13:52:57.681Z,17.10
2022-10-11T13:55:32.697Z,16.80
2022-10-11T13:58:16.283Z,16.50
2022-10-11T14:00:57.461Z,16.30
2022-10-11T14:03:36.842Z,16.00
2022-10-11T14:06:05.615Z,15.60
2022-10-11T14:08:40.554Z,15.60
2022-10-11T14:11:14.389Z,15.60
2022-10-11T14:13:51.771Z,15.60
2022-10-11T14:16:36.866Z,15.70
2022-10-11T14:19:11.774Z,15.80
2022-10-11T14:21:52.972Z,15.80
2022-10-11T14:24:23.367Z,15.80
2022-10-11T14:26:56.342Z,16.20
2022-10-11T14:29:32.339Z,16.50
2022-10-11T14:32:06.600Z,16.50
2022-10-11T14:34:39.355Z,16.50
2022-10-11T14:37:11.283Z,16.40
2022-10-11T14:39:41.627Z,15.70
2022-10-11T14:42:12.132Z,15.90
2022-10-11T14:44:43.952Z,16.00
2022-10-11T14:47:18.219Z,16.10
2022-10-11T14:49:48.365Z,16.20
2022-10-11T14:52:18.957Z,16.40
2022-10-11T14:54:48.810Z,16.30
2022-10-11T14:57:20.764Z,16.10
2022-10-11T14:59:51.802Z,16.10
2022-10-11T15:02:21.708Z,16.20
2022-10-11T15:04:51.816Z,16.20
2022-10-11T15:07:21.514Z,16.10
2022-10-11T15:09:51.259Z,15.90
2022-10-11T15:12:21.181Z,15.80
2022-10-11T15:14:52.091Z,15.60
2022-10-11T15:17:21.767Z,15.40
2022-10-11T15:19:51.719Z,15.40
2022-10-11T15:22:21.680Z,15.40
2022-10-11T15:24:53.100Z,15.40
2022-10-11T15:27:25.788Z,15.30
2022-10-11T15:29:57.443Z,15.30
2022-10-11T15:32:29.822Z,15.20
2022-10-11T15:34:59.608Z,15.10
2022-10-11T15:37:32.675Z,14.80
2022-10-11T15:40:05.008Z,14.80
2022-10-11T15:42:35.771Z,14.60
2022-10-11T15:45:13.609Z,14.30
2022-10-11T15:47:43.925Z,14.10
2022-10-11T15:50:34.236Z,13.80
2022-10-11T15:53:05.595Z,13.70
2022-10-11T15:55:40.011Z,13.40
2022-10-11T15:58:13.322Z,13.20
2022-10-11T16:00:45.191Z,12.90
2022-10-11T16:03:16.826Z,12.70
2022-10-11T16:05:47.230Z,12.60
2022-10-11T16:08:17.067Z,12.50
2022-10-11T16:10:46.863Z,12.30
2022-10-11T16:13:17.128Z,12.30
2022-10-11T16:15:49.935Z,12.30
2022-10-11T16:18:21.218Z,12.30
2022-10-11T16:20:53.193Z,12.10
2022-10-11T16:23:23.941Z,12.00
2022-10-11T16:26:01.316Z,12.00
2022-10-11T16:28:31.713Z,12.00
2022-10-11T16:31:06.568Z,11.80
2022-10-11T16:33:45.142Z,11.70
2022-10-11T16:36:31.293Z,11.70
2022-10-11T16:39:02.543Z,11.50
2022-10-11T16:41:32.559Z,11.50
2022-10-11T16:44:02.405Z,11.50
2022-10-11T16:46:35.061Z,11.40
2022-10-11T16:49:07.038Z,11.30
2022-10-11T16:51:37.035Z,11.20
2022-10-11T16:54:07.371Z,11.10
2022-10-11T16:56:39.946Z,11.10
2022-10-11T16:59:10.753Z,11.00
2022-10-11T17:01:46.521Z,11.00
2022-10-11T17:04:17.160Z,10.90
2022-10-11T17:06:48.014Z,10.90
2022-10-11T17:09:20.881Z,10.90
2022-10-11T17:11:50.800Z,10.70
2022-10-11T17:14:21.846Z,10.80
2022-10-11T17:16:53.391Z,10.90
2022-10-11T17:19:23.423Z,10.90
2022-10-11T17:21:53.230Z,11.00
2022-10-11T17:24:22.974Z,10.90
2022-10-11T17:26:53.704Z,11.00
2022-10-11T17:29:24.082Z,11.00
2022-10-11T17:31:58.312Z,10.90
2022-10-11T17:34:28.145Z,10.90
2022-10-11T17:36:58.033Z,10.90
2022-10-11T17:39:27.795Z,10.90
2022-10-11T17:41:57.876Z,11.00
2022-10-11T17:44:34.654Z,11.00
2022-10-11T17:47:06.173Z,10.90
2022-10-11T17:49:36.328Z,10.80
2022-10-11T17:52:07.177Z,10.60
2022-10-11T17:54:36.903Z,10.60
2022-10-11T17:57:07.975Z,10.50
2022-10-11T17:59:38.276Z,10.50
2022-10-11T18:02:10.186Z,10.40
2022-10-11T18:04:42.582Z,10.40
2022-10-11T18:07:13.196Z,10.50
2022-10-11T18:09:42.994Z,10.60
2022-10-11T18:12:16.315Z,10.60
2022-10-11T18:14:46.304Z,10.50
2022-10-11T18:17:17.770Z,10.50
2022-10-11T18:19:49.734Z,10.50
2022-10-11T18:22:19.557Z,10.40
2022-10-11T18:24:49.160Z,10.30
2022-10-11T18:27:19.049Z,10.20
2022-10-11T18:29:48.760Z,10.20
2022-10-11T18:32:20.971Z,10.10
2022-10-11T18:34:51.263Z,10.00
2022-10-11T18:37:21.793Z,10.00
2022-10-11T18:39:55.009Z,10.10
2022-10-11T18:42:30.375Z,10.10
2022-10-11T18:45:00.267Z,10.10
2022-10-11T18:47:31.579Z,10.10
2022-10-11T18:50:01.848Z,10.10
2022-10-11T18:52:31.843Z,10.10
2022-10-11T18:55:02.881Z,10.10
2022-10-11T18:57:34.453Z,10.00
2022-10-11T19:00:11.991Z,10.00
2022-10-11T19:02:54.138Z,10.00
2022-10-11T19:05:26.282Z,9.90
2022-10-11T19:07:56.237Z,9.80
2022-10-11T19:10:26.060Z,9.70
2022-10-11T19:12:56.741Z,9.60
2022-10-11T19:15:28.877Z,9.60
2022-10-11T19:18:02.549Z,9.40
2022-10-11T19:20:30.721Z,9.30
2022-10-11T19:23:00.535Z,9.30
2022-10-11T19:25:30.289Z,9.30
2022-10-11T19:28:00.252Z,9.30
2022-10-11T19:30:32.537Z,9.30
2022-10-11T19:33:11.542Z,9.30
2022-10-11T19:35:42.408Z,9.20
2022-10-11T19:38:14.870Z,9.20
2022-10-11T19:40:53.057Z,9.20
2022-10-11T19:43:23.423Z,9.10
2022-10-11T19:45:59.743Z,9.00
2022-10-11T19:48:31.501Z,9.00
2022-10-11T19:51:16.585Z,9.00
2022-10-11T19:53:46.898Z,9.00
2022-10-11T19:56:19.485Z,9.00
2022-10-11T19:58:50.557Z,9.00
2022-10-11T20:01:22.985Z,8.90
2022-10-11T20:03:55.991Z,8.90
2022-10-11T20:06:28.081Z,8.90
2022-10-11T20:09:23.784Z,8.80
2022-10-11T20:11:48.360Z,8.70
2022-10-11T20:14:18.397Z,8.60
2022-10-11T20:16:50.247Z,8.40
2022-10-11T20:19:25.087Z,8.50
2022-10-11T20:21:57.873Z,8.40
2022-10-11T20:24:33.117Z,8.40
2022-10-11T20:27:02.219Z,8.30
2022-10-11T20:29:32.721Z,8.30
2022-10-11T20:32:02.551Z,8.20
2022-10-11T20:34:34.023Z,8.20
2022-10-11T20:37:03.851Z,8.20
2022-10-11T20:39:33.720Z,8.20
2022-10-11T20:42:03.290Z,8.10
2022-10-11T20:44:33.235Z,8.00
2022-10-11T20:47:04.197Z,7.90
2022-10-11T20:49:35.458Z,7.80
2022-10-11T20:52:05.470Z,7.80
2022-10-11T20:54:35.557Z,7.70
2022-10-11T20:57:05.443Z,7.70
2022-10-11T20:59:35.319Z,7.70
2022-10-11T21:02:05.023Z,7.60
2022-10-11T21:04:36.055Z,7.60
2022-10-11T21:07:05.921Z,7.50
2022-10-11T21:09:36.100Z,7.50
2022-10-11T21:12:05.807Z,7.50
2022-10-11T21:14:35.777Z,7.40
2022-10-11T21:17:05.486Z,7.50
2022-10-11T21:19:36.699Z,7.50
2022-10-11T21:22:06.318Z,7.50
2022-10-11T21:24:35.993Z,7.60
2022-10-11T21:27:05.780Z,7.60
2022-10-11T21:29:35.495Z,7.60
2022-10-11T21:32:05.151Z,7.60
2022-10-11T21:34:36.214Z,7.60
2022-10-11T21:37:05.982Z,7.60
2022-10-11T21:39:35.886Z,7.50
2022-10-11T21:42:05.592Z,7.50
2022-10-11T21:44:36.820Z,7.50
2022-10-11T21:47:07.749Z,7.40
2022-10-11T21:49:38.911Z,7.50
2022-10-11T21:52:08.724Z,7.50
2022-10-11T21:54:38.554Z,7.40
2022-10-11T21:57:08.600Z,7.40
2022-10-11T21:59:38.459Z,7.50
2022-10-11T22:02:08.329Z,7.50
2022-10-11T22:04:39.531Z,7.50
2022-10-11T22:07:09.581Z,7.50
2022-10-11T22:09:39.633Z,7.50
2022-10-11T22:12:09.747Z,7.60
2022-10-11T22:14:39.370Z,7.50
2022-10-11T22:17:09.212Z,7.40
2022-10-11T22:19:40.636Z,7.40
2022-10-11T22:22:10.534Z,7.30
2022-10-11T22:24:40.417Z,7.30
2022-10-11T22:27:10.747Z,7.30
2022-10-11T22:29:40.665Z,7.30
2022-10-11T22:32:10.775Z,7.30
2022-10-11T22:34:42.066Z,7.30
2022-10-11T22:37:11.943Z,7.20
2022-10-11T22:39:42.053Z,7.30
2022-10-11T22:42:11.882Z,7.30
2022-10-11T22:44:42.071Z,7.30
2022-10-11T22:47:12.203Z,7.10
2022-10-11T22:49:43.677Z,7.10
2022-10-11T22:52:13.560Z,7.10
2022-10-11T22:54:43.272Z,7.10
2022-10-11T22:57:13.193Z,7.10
2022-10-11T22:59:42.894Z,7.00
2022-10-11T23:02:12.797Z,7.00
2022-10-11T23:04:44.670Z,7.00
2022-10-11T23:07:14.725Z,7.00
2022-10-11T23:09:44.537Z,7.00
2022-10-11T23:12:14.953Z,7.00
2022-10-11T23:14:44.608Z,7.00
2022-10-11T23:17:14.084Z,6.90
2022-10-11T23:19:45.517Z,6.90
2022-10-11T23:22:15.529Z,7.00
2022-10-11T23:24:45.215Z,7.00
2022-10-11T23:27:14.890Z,6.80
2022-10-11T23:29:44.910Z,6.80
2022-10-11T23:32:15.210Z,6.70
2022-10-11T23:34:46.227Z,6.80
2022-10-11T23:37:15.895Z,6.80
2022-10-11T23:39:45.974Z,6.80
2022-10-11T23:42:16.007Z,6.70
2022-10-11T23:44:45.897Z,6.80
2022-10-11T23:47:15.439Z,6.80
2022-10-11T23:49:46.422Z,6.80
2022-10-11T23:52:16.273Z,6.70
2022-10-11T23:54:46.067Z,6.60
2022-10-11T23:57:19.796Z,6.60
2022-10-11T23:59:50.007Z,6.60
